Flight Track Log - Related Links

Times and Time Zones

All times are in EDT time to prevent confusion due to time zone crossing. See the SWA492 flight status page for this flight to view local times or setup timezone preferences in your user account.

Time Position Orientation Groundspeed Altitude Reporting Facility
EDT Latitude Longitude Course Direction KTS MPH feet Rate Location/Type
Sun 08:43:17 AM 41.8167 -87.7667 86° East 241 277 3,000  Level Chicago TRACON
Sun 08:44:23 AM 41.8000 -87.6667 103° East 245 282 3,000  Level Chicago TRACON
Sun 08:45:23 AM 41.7833 -87.5833 105° East 247 284 3,000 842 Level Chicago TRACON
Sun 08:46:17 AM 41.7667 -87.5000 105° East 280 322 4,600 2,118 Climbing Chicago TRACON
Sun 08:46:48 AM 41.7700 -87.4447 85° East 297 342 6,000 3,130 Climbing Chicago Center
Sun 08:47:49 AM 41.7678 -87.3283 91° East 315 362 9,400 3,415 Climbing Chicago Center
Sun 08:48:00 AM 41.7514 -86.7921 86° East  Level FlightAware Approximate
Sun 08:48:51 AM 41.7656 -87.2044 91° East 328 377 13,000  Level Chicago Center
Sun 08:49:52 AM 41.7603 -87.0758 93° East 344 396 16,400 2,780 Climbing Chicago Center
Sun 08:50:54 AM 41.7681 -86.9367 86° East 370 426 18,700 2,390 Climbing Chicago Center
Sun 08:51:55 AM 41.8278 -86.8067 58° Northeast 399 459 21,300 2,829 Climbing Chicago Center
Sun 08:52:57 AM 41.8969 -86.6419 61° Northeast 419 482 24,500 2,732 Climbing Chicago Center
Sun 08:53:58 AM 41.9575 -86.5014 60° Northeast 429 494 26,900 2,195 Climbing Chicago Center
Sun 08:55:00 AM 42.0192 -86.3564 60° Northeast 439 505 29,000 1,805 Climbing Chicago Center
Sun 08:56:01 AM 42.0228 -86.1806 88° East 468 539 30,600 1,366 Climbing Chicago Center
Sun 08:57:03 AM 42.0419 -86.0014 82° East 485 558 31,800 1,452 Climbing Chicago Center
Sun 08:58:05 AM 42.0667 -85.8225 79° East 495 570 33,600 1,403 Climbing Chicago Center
Sun 08:59:07 AM 42.0917 -85.6406 79° East 498 573 34,700 1,463 Climbing Chicago Center
Sun 09:00:08 AM 42.1219 -85.4192 79° East 504 580 36,600 1,475 Climbing Chicago Center
Sun 09:01:09 AM 42.1461 -85.2375 80° East 499 574 37,700 976 Climbing Chicago Center
Sun 09:02:11 AM 42.1650 -85.0550 82° East 496 571 38,600 629 Climbing Chicago Center
Sun 09:03:13 AM 42.1833 -84.8736 82° East 493 567 39,000 195 Climbing Chicago Center
Sun 09:04:14 AM 42.2011 -84.6911 82° East 494 568 39,000  Level Chicago Center
Sun 09:05:16 AM 42.2189 -84.5081 82° East 494 568 39,000  Level Chicago Center
Sun 09:06:18 AM 42.2367 -84.3261 82° East 492 566 39,000  Level Chicago Center
Sun 09:07:19 AM 42.2575 -84.1064 83° East 493 567 39,000  Level Chicago Center
Sun 09:08:21 AM 42.2750 -83.9247 83° East 491 565 39,000  Level Chicago Center
Sun 09:09:23 AM 42.2903 -83.7436 83° East 489 563 39,000  Level Chicago Center
Sun 09:10:32 AM 42.3081 -83.5228 84° East 489 563 39,000  Level Cleveland Center
Sun 09:11:32 AM 42.3231 -83.3353 84° East 494 568 39,000  Level Cleveland Center
Sun 09:12:32 AM 42.3372 -83.1703 83° East 499 574 39,000  Level Cleveland Center
Sun 09:13:32 AM 42.3536 -82.9883 83° East 499 574 39,000  Level Cleveland Center
Sun 09:14:32 AM 42.3678 -82.8033 84° East 494 568 39,000  Level Cleveland Center
Sun 09:15:32 AM 42.3839 -82.6211 83° East 494 568 39,000  Level Cleveland Center
Sun 09:16:32 AM 42.3972 -82.4417 84° East 489 563 39,000  Level Cleveland Center
Sun 09:17:32 AM 42.4125 -82.2592 83° East 484 557 39,000  Level Cleveland Center
Sun 09:18:32 AM 42.4275 -82.0825 83° East 479 551 39,000  Level Cleveland Center
Sun 09:19:32 AM 42.4403 -81.9000 85° East 484 557 39,000  Level Cleveland Center
Sun 09:20:32 AM 42.4544 -81.7256 84° East 479 551 39,000  Level Cleveland Center
Sun 09:21:32 AM 42.4667 -81.5344 85° East 479 551 39,000  Level Cleveland Center
Sun 09:22:32 AM 42.4806 -81.3517 84° East 479 551 39,000  Level Cleveland Center
Sun 09:23:32 AM 42.4919 -81.1717 85° East 479 551 39,000  Level Cleveland Center
Sun 09:24:32 AM 42.5033 -80.9944 85° East 479 551 39,000  Level Cleveland Center
Sun 09:25:32 AM 42.5119 -80.8142 86° East 479 551 39,000  Level Cleveland Center
Sun 09:26:32 AM 42.5247 -80.6339 84° East 479 551 39,000  Level Cleveland Center
Sun 09:27:32 AM 42.5372 -80.4564 84° East 479 551 39,000  Level Cleveland Center
Sun 09:28:32 AM 42.5475 -80.2817 85° East 473 544 39,000  Level Cleveland Center
Sun 09:29:32 AM 42.5572 -80.0983 86° East 478 550 39,000  Level Cleveland Center
Sun 09:30:32 AM 42.5708 -79.9236 84° East 478 550 39,000  Level Cleveland Center
Sun 09:31:32 AM 42.5822 -79.7428 85° East 473 544 39,000  Level Cleveland Center
Sun 09:32:32 AM 42.5892 -79.5681 87° East 473 544 39,000  Level Cleveland Center
Sun 09:33:32 AM 42.6019 -79.3900 84° East 473 544 39,000  Level Cleveland Center
Sun 09:34:32 AM 42.6083 -79.2122 87° East 473 544 39,000  Level Cleveland Center
Sun 09:35:32 AM 42.6167 -79.0342 86° East 473 544 39,000  Level Cleveland Center
Sun 09:36:32 AM 42.6244 -78.8533 87° East 473 544 39,000  Level Cleveland Center
Sun 09:37:32 AM 42.6342 -78.6756 86° East 473 544 39,000  Level Cleveland Center
Sun 09:38:32 AM 42.6417 -78.5003 87° East 473 544 39,000  Level Cleveland Center
Sun 09:39:32 AM 42.6486 -78.3219 87° East 473 544 39,000  Level Cleveland Center
Sun 09:40:32 AM 42.6553 -78.1411 87° East 473 544 39,000  Level Cleveland Center
Sun 09:41:32 AM 42.6639 -77.9628 86° East 473 544 39,000  Level Cleveland Center
Sun 09:42:32 AM 42.6700 -77.7761 87° East 479 551 39,000  Level Cleveland Center
Sun 09:43:32 AM 42.6758 -77.5953 87° East 479 551 39,000  Level Cleveland Center
Sun 09:44:32 AM 42.6817 -77.4256 87° East 479 551 39,000  Level Cleveland Center
Sun 09:46:12 AM 42.6911 -77.1328 87° East 487 560 39,000  Level Boston Center
Sun 09:47:10 AM 42.6967 -76.9494 88° East 487 560 39,000  Level Boston Center
Sun 09:48:12 AM 42.7017 -76.7633 88° East 481 554 39,000  Level Boston Center
Sun 09:49:13 AM 42.7064 -76.5800 88° East 481 554 39,000  Level Boston Center
Sun 09:50:10 AM 42.7111 -76.3908 88° East 486 559 39,000  Level Boston Center
Sun 09:51:10 AM 42.7139 -76.1875 89° East 486 559 39,000  Level Boston Center
Sun 09:52:11 AM 42.7217 -76.0042 87° East 492 566 39,000  Level Boston Center
Sun 09:53:12 AM 42.7233 -75.8206 89° East 492 566 39,000  Level Boston Center
Sun 09:54:13 AM 42.7264 -75.6369 89° East 492 566 39,000  Level Boston Center
Sun 09:55:10 AM 42.7292 -75.4561 89° East 482 555 39,000  Level Boston Center
Sun 09:56:10 AM 42.7339 -75.2783 88° East 476 548 39,000  Level Boston Center
Sun 09:57:12 AM 42.7361 -75.0944 89° East 476 548 39,000  Level Boston Center
Sun 09:58:12 AM 42.7381 -74.9164 89° East 476 548 39,000 -864 Level Boston Center
Sun 09:59:10 AM 42.7400 -74.7356 89° East 471 542 37,300 -1,017 Descending Boston Center
Sun 10:00:10 AM 42.7411 -74.5633 89° East 471 542 37,000 -150 Descending Boston Center
Sun 10:01:10 AM 42.7444 -74.3853 88° East 471 542 37,000  Level Boston Center
Sun 10:02:11 AM 42.7453 -74.2042 90° East 471 542 37,000  Level Boston Center
Sun 10:03:12 AM 42.7436 -74.0261 91° East 471 542 37,000 -397 Level Boston Center
Sun 10:04:12 AM 42.7461 -73.8453 89° East 477 549 36,200 -915 Descending Boston Center
Sun 10:05:10 AM 42.7356 -73.6669 95° East 476 548 35,200 -966 Descending Boston Center
Sun 10:06:10 AM 42.7164 -73.4969 99° East 470 541 34,300 -942 Descending Boston Center
Sun 10:07:11 AM 42.6972 -73.3186 98° East 463 533 33,300 -1,983 Descending Boston Center
Sun 10:08:11 AM 42.6794 -73.1433 98° East 463 533 30,300 -2,900 Descending Boston Center
Sun 10:09:11 AM 42.6575 -72.9653 99° East 468 539 27,500 -2,678 Descending Boston Center
Sun 10:10:12 AM 42.6375 -72.7928 99° East 468 539 24,900 -2,628 Descending Boston Center
Sun 10:11:12 AM 42.6211 -72.6292 98° East 455 524 22,200 -2,600 Descending Boston Center
Sun 10:12:12 AM 42.5964 -72.4597 101° East 436 502 19,700 -2,237 Descending Boston Center
Sun 10:13:10 AM 42.5797 -72.3300 100° East 421 484 17,800 -2,441 Descending Boston Center
Sun 10:14:10 AM 42.5583 -72.1667 100° East 409 471 14,900 -2,479 Descending Boston Center
Sun 10:15:11 AM 42.5414 -72.0231 99° East 399 459 12,800 -2,115 Descending Boston Center
Sun 10:16:12 AM 42.5303 -71.8850 96° East 377 434 10,600 -1,513 Descending Boston Center
Sun 10:17:10 AM 42.5381 -71.7581 85° East 351 404 9,800 -1,059 Descending Boston Center
Sun 10:18:11 AM 42.5497 -71.6425 82° East 314 361 8,500 -942 Descending Boston Center
Sun 10:19:11 AM 42.5572 -71.5467 84° East 290 334 7,900 -700 Descending Boston Center
Sun 10:20:11 AM 42.5753 -71.4447 76° East 255 293 7,100 -694 Descending Boston Center
Sun 10:21:12 AM 42.5892 -71.3656 77° East 237 273 6,500 -706 Descending Boston Center
Sun 10:22:10 AM 42.5656 -71.2900 113° Southeast 197 227 5,700 -763 Descending Boston Center
Sun 10:23:10 AM 42.5339 -71.2456 134° Southeast 190 219 5,000 -843 Descending Boston Center
Sun 10:24:11 AM 42.4956 -71.1900 133° Southeast 190 219 4,000 -1,230 Descending Boston Center
Sun 10:25:12 AM 42.4658 -71.1456 132° Southeast 185 213 2,500 -1,261 Descending Boston Center
Sun 10:26:10 AM 42.4278 -71.0900 133° Southeast 180 207 1,500 -915 Descending Boston Center
Sun 10:27:10 AM 42.4003 -71.0511 134° Southeast 170 196 700 -500 Descending Boston Center
Sun 10:28:10 AM 42.3683 -71.0097 136° Southeast 164 189 500 11,554 Descending Boston Center
Sun 10:29:11 AM 42.3367 -70.9683 136° Southeast 164 189 24,000 11,653 Climbing Boston Center
Sun 10:30:11 AM 42.3050 -70.9269 136° Southeast 164 189 24,000  Level Boston Center

Login

Don't have an account? Register now (free) for customized features, flight alerts, and more!